createdAt,value
2023-03-03T00:00:23.064Z,13.80
2023-03-03T00:01:22.930Z,14.10
2023-03-03T00:02:22.231Z,14
2023-03-03T00:03:22.935Z,13.89
2023-03-03T00:04:22.158Z,13.60
2023-03-03T00:05:21.745Z,14.10
2023-03-03T00:06:21.727Z,14.69
2023-03-03T00:07:21.832Z,13.5
2023-03-03T00:08:21.676Z,13
2023-03-03T00:09:21.867Z,13.30
2023-03-03T00:10:36.554Z,13.60
2023-03-03T00:11:21.684Z,13.30
2023-03-03T00:12:40.857Z,12.60
2023-03-03T00:13:22.112Z,13.5
2023-03-03T00:14:40.564Z,13.39
2023-03-03T00:15:22.111Z,14.30
2023-03-03T00:16:21.818Z,13.30
2023-03-03T00:17:21.943Z,13.80
2023-03-03T00:18:21.275Z,13.89
2023-03-03T00:19:21.932Z,13.5
2023-03-03T00:20:22.771Z,13.19
2023-03-03T00:21:21.927Z,13.60
2023-03-03T00:22:22.334Z,13.39
2023-03-03T00:23:21.676Z,13.19
2023-03-03T00:24:22.078Z,14.19
2023-03-03T00:25:21.624Z,13.80
2023-03-03T00:26:21.463Z,13.69
2023-03-03T00:27:21.716Z,13.19
2023-03-03T00:28:21.575Z,13.39
2023-03-03T00:29:22.335Z,14.10
2023-03-03T00:30:22.239Z,13.60
2023-03-03T00:31:21.939Z,14
2023-03-03T00:32:21.906Z,12.80
2023-03-03T00:33:21.659Z,13.5
2023-03-03T00:34:21.633Z,13.60
2023-03-03T00:35:21.526Z,14
2023-03-03T00:36:21.536Z,13.80
2023-03-03T00:37:22.046Z,13.39
2023-03-03T00:38:21.690Z,13.89
2023-03-03T00:39:22.029Z,13.69
2023-03-03T00:40:21.436Z,13.80
2023-03-03T00:41:22.259Z,13.60
2023-03-03T00:43:21.682Z,14.19
2023-03-03T00:44:21.201Z,13.80
2023-03-03T00:46:21.908Z,13.89
2023-03-03T00:47:21.253Z,13.69
2023-03-03T00:48:21.778Z,13.89
2023-03-03T00:49:21.868Z,14.10
2023-03-03T00:50:21.671Z,13.80
2023-03-03T00:51:21.587Z,14.60
2023-03-03T00:52:21.578Z,14.5
2023-03-03T00:53:20.017Z,14.10
2023-03-03T00:54:21.486Z,14.89
2023-03-03T00:55:21.636Z,14.39
2023-03-03T00:56:21.444Z,14.69
2023-03-03T00:57:22.127Z,15.39
2023-03-03T00:58:21.699Z,14.39
2023-03-03T00:59:21.698Z,14.69
2023-03-03T01:00:21.848Z,14.89
2023-03-03T01:01:24.128Z,14.19
2023-03-03T01:02:22.572Z,14.10
2023-03-03T01:03:21.747Z,15.30
2023-03-03T01:04:20.977Z,15.19
2023-03-03T01:05:21.701Z,15.5
2023-03-03T01:06:21.250Z,15.10
2023-03-03T01:07:21.644Z,14.30
2023-03-03T01:08:22.059Z,15.69
2023-03-03T01:09:21.216Z,14.30
2023-03-03T01:10:21.616Z,15
2023-03-03T01:11:21.746Z,15.39
2023-03-03T01:12:21.432Z,15.5
2023-03-03T01:13:21.580Z,14.80
2023-03-03T01:14:22.080Z,15.19
2023-03-03T01:15:21.926Z,15.10
2023-03-03T01:16:22.109Z,14.60
2023-03-03T01:17:20.872Z,15.39
2023-03-03T01:19:21.666Z,14.69
2023-03-03T01:20:22.098Z,14.80
2023-03-03T01:21:21.570Z,15.30
2023-03-03T01:22:21.663Z,15
2023-03-03T01:23:21.677Z,15.39
2023-03-03T01:24:21.797Z,15.60
2023-03-03T01:25:21.626Z,15.5
2023-03-03T01:26:21.551Z,15.10
2023-03-03T01:27:21.612Z,15.5
2023-03-03T01:28:21.548Z,14.60
2023-03-03T01:29:21.894Z,15.5
2023-03-03T01:30:21.898Z,15.39
2023-03-03T01:31:21.249Z,15.30
2023-03-03T01:32:22.190Z,14.69
2023-03-03T01:33:21.388Z,15.5
2023-03-03T01:34:21.857Z,15.39
2023-03-03T01:35:22.420Z,15.60
2023-03-03T01:36:21.817Z,15.69
2023-03-03T01:37:22.238Z,15.89
2023-03-03T01:40:22.134Z,16
2023-03-03T01:41:21.499Z,15.89
2023-03-03T01:42:21.832Z,16
2023-03-03T01:44:21.665Z,17.20
2023-03-03T01:45:22.339Z,15.89
2023-03-03T01:46:21.648Z,16.39
2023-03-03T01:47:21.856Z,17
2023-03-03T01:48:21.444Z,17.29
2023-03-03T01:49:21.656Z,16.89
2023-03-03T01:50:22.402Z,17.60
2023-03-03T01:51:21.864Z,17.10
2023-03-03T01:52:21.420Z,17.79
2023-03-03T01:53:20.859Z,16.89
2023-03-03T01:54:21.222Z,17.39
2023-03-03T01:55:21.662Z,17.20
2023-03-03T01:56:21.769Z,16.70
2023-03-03T01:57:21.880Z,17.20
2023-03-03T01:58:21.590Z,17.29
2023-03-03T01:59:22.088Z,18.10
2023-03-03T02:00:22.812Z,16.60
2023-03-03T02:01:22.695Z,17.70
2023-03-03T02:02:21.908Z,17.39
2023-03-03T02:03:22.370Z,17.5
2023-03-03T02:04:21.727Z,18.10
2023-03-03T02:05:22.622Z,17.70
2023-03-03T02:06:21.558Z,17.10
2023-03-03T02:07:21.901Z,17.39
2023-03-03T02:08:22.330Z,18.20
2023-03-03T02:10:21.910Z,19
2023-03-03T02:11:21.991Z,18.20
2023-03-03T02:12:21.742Z,18.10
2023-03-03T02:13:21.620Z,17.70
2023-03-03T02:14:21.690Z,17.79
2023-03-03T02:15:22.072Z,18.60
2023-03-03T02:16:22.259Z,18.10
2023-03-03T02:17:21.853Z,17.79
2023-03-03T02:18:22.087Z,17.89
2023-03-03T02:19:21.631Z,18.39
2023-03-03T02:20:22.612Z,18.70
2023-03-03T02:21:21.894Z,19.10
2023-03-03T02:22:21.605Z,18.89
2023-03-03T02:24:21.920Z,17.70
2023-03-03T02:25:21.881Z,19.5
2023-03-03T02:26:21.802Z,19.29
2023-03-03T02:27:22.160Z,19.5
2023-03-03T02:28:21.561Z,18.89
2023-03-03T02:29:22.174Z,19.89
2023-03-03T02:30:22.152Z,19.20
2023-03-03T02:31:21.736Z,21
2023-03-03T02:32:21.965Z,20.20
2023-03-03T02:33:21.620Z,20.5
2023-03-03T02:34:21.198Z,19.5
2023-03-03T02:35:21.700Z,19.29
2023-03-03T02:36:21.919Z,20.29
2023-03-03T02:37:21.583Z,19.79
2023-03-03T02:38:21.291Z,19.60
2023-03-03T02:39:21.865Z,19.5
2023-03-03T02:40:21.179Z,21
2023-03-03T02:41:21.219Z,19.5
2023-03-03T02:42:21.264Z,19.39
2023-03-03T02:43:21.123Z,19.89
2023-03-03T02:44:21.634Z,20
2023-03-03T02:45:21.891Z,18.89
2023-03-03T02:46:21.107Z,19.29
2023-03-03T02:47:20.987Z,18.89
2023-03-03T02:48:21.534Z,19.70
2023-03-03T02:49:21.455Z,19.89
2023-03-03T02:50:21.850Z,21.20
2023-03-03T02:51:21.699Z,22.10
2023-03-03T02:52:21.659Z,21.10
2023-03-03T02:53:21.946Z,21.5
2023-03-03T02:54:21.025Z,21.10
2023-03-03T02:55:21.519Z,22.5
2023-03-03T02:56:21.877Z,23.29
2023-03-03T02:57:21.269Z,24.5
2023-03-03T02:58:21.409Z,24.89
2023-03-03T02:59:21.586Z,25.39
2023-03-03T03:00:22.965Z,25.60
2023-03-03T03:02:21.551Z,27.20
2023-03-03T03:03:22.009Z,27.70
2023-03-03T03:04:22.349Z,26.5
2023-03-03T03:05:21.473Z,26.39
2023-03-03T03:06:21.038Z,27.70
2023-03-03T03:07:21.341Z,28.10
2023-03-03T03:08:21.440Z,29
2023-03-03T03:09:21.563Z,27.70
2023-03-03T03:10:21.811Z,29
2023-03-03T03:11:21.277Z,28.20
2023-03-03T03:12:22.127Z,28.39
2023-03-03T03:13:21.595Z,31.10
2023-03-03T03:14:22.045Z,29.20
2023-03-03T03:15:21.954Z,29.60
2023-03-03T03:16:22.193Z,30
2023-03-03T03:17:21.785Z,30.79
2023-03-03T03:18:21.454Z,29.79
2023-03-03T03:19:21.684Z,29.70
2023-03-03T03:20:21.436Z,31
2023-03-03T03:21:22.289Z,30.39
2023-03-03T03:22:21.614Z,30.10
2023-03-03T03:23:21.402Z,30.20
2023-03-03T03:24:21.789Z,31.5
2023-03-03T03:25:22.347Z,31.70
2023-03-03T03:26:21.909Z,32.79
2023-03-03T03:27:21.213Z,32.70
2023-03-03T03:28:21.038Z,33.5
2023-03-03T03:29:20.933Z,32.40
2023-03-03T03:30:21.050Z,32.70
2023-03-03T03:31:21.394Z,33.5
2023-03-03T03:32:21.633Z,33.20
2023-03-03T03:33:21.593Z,34.79
2023-03-03T03:35:21.756Z,35.09
2023-03-03T03:36:21.493Z,34.5
2023-03-03T03:37:21.943Z,35.70
2023-03-03T03:38:21.177Z,37.79
2023-03-03T03:39:21.817Z,35.5
2023-03-03T03:40:21.961Z,35
2023-03-03T03:41:21.753Z,36.20
2023-03-03T03:42:21.580Z,35.90
2023-03-03T03:43:21.761Z,36.09
2023-03-03T03:44:21.419Z,36.59
2023-03-03T03:45:22.032Z,36.29
2023-03-03T03:46:21.462Z,37.09
2023-03-03T03:47:21.980Z,36.90
2023-03-03T03:48:21.851Z,37.79
2023-03-03T03:49:21.172Z,37.90
2023-03-03T03:50:22.100Z,39.20
2023-03-03T03:51:21.884Z,40.40
2023-03-03T03:52:21.429Z,41
2023-03-03T03:53:22.167Z,38.90
2023-03-03T03:54:21.624Z,38.59
2023-03-03T03:55:22.174Z,39.5
2023-03-03T03:56:21.759Z,38.29
2023-03-03T03:57:22.209Z,40.20
2023-03-03T03:58:21.834Z,39.70
2023-03-03T03:59:21.898Z,39.40
2023-03-03T04:00:23.120Z,40.20
2023-03-03T04:01:21.808Z,38.40
2023-03-03T04:02:22.175Z,39.40
2023-03-03T04:03:22.281Z,39.90
2023-03-03T04:04:21.636Z,39.29
2023-03-03T04:05:22.219Z,40.70
2023-03-03T04:06:21.672Z,42.40
2023-03-03T04:07:22.244Z,41.90
2023-03-03T04:08:21.801Z,41.09
2023-03-03T04:09:21.803Z,40.70
2023-03-03T04:10:21.953Z,41.09
2023-03-03T04:11:22.514Z,40.59
2023-03-03T04:12:22.114Z,38.79
2023-03-03T04:13:21.810Z,39.20
2023-03-03T04:14:22.044Z,40.29
2023-03-03T04:15:21.808Z,40.79
2023-03-03T04:16:21.944Z,42.20
2023-03-03T04:17:21.511Z,40.09
2023-03-03T04:18:21.763Z,39.29
2023-03-03T04:19:21.946Z,39.79
2023-03-03T04:20:21.854Z,39
2023-03-03T04:21:22.232Z,40
2023-03-03T04:22:21.646Z,39.5
2023-03-03T04:23:21.349Z,40.90
2023-03-03T04:24:21.880Z,40.5
2023-03-03T04:25:21.866Z,38.5
2023-03-03T04:26:22.072Z,41.20
2023-03-03T04:27:21.246Z,38.90
2023-03-03T04:28:21.233Z,38.70
2023-03-03T04:29:21.445Z,38.5
2023-03-03T04:30:22.126Z,37
2023-03-03T04:31:22.594Z,38
2023-03-03T04:32:22.065Z,38.79
2023-03-03T04:33:21.799Z,40.90
2023-03-03T04:34:26.435Z,37.70
2023-03-03T04:35:21.578Z,40.29
2023-03-03T04:36:21.123Z,40.40
2023-03-03T04:37:21.602Z,39.09
2023-03-03T04:39:21.734Z,38.90
2023-03-03T04:40:21.769Z,39.5
2023-03-03T04:41:21.623Z,39.40
2023-03-03T04:42:21.685Z,39.5
2023-03-03T04:43:21.916Z,37.09
2023-03-03T04:44:21.589Z,37.79
2023-03-03T04:45:22.732Z,40
2023-03-03T04:46:21.466Z,38.40
2023-03-03T04:47:21.877Z,37.70
2023-03-03T04:48:22.012Z,39.59
2023-03-03T04:49:21.862Z,38.20
2023-03-03T04:50:21.867Z,37
2023-03-03T04:51:22.364Z,36.70
2023-03-03T04:52:21.942Z,37.79
2023-03-03T04:53:21.647Z,38.20
2023-03-03T04:54:22.067Z,39.5
2023-03-03T04:55:21.672Z,38.20
2023-03-03T04:56:21.506Z,40.20
2023-03-03T04:57:21.798Z,37.79
2023-03-03T04:58:21.169Z,39.29
2023-03-03T04:59:21.692Z,38.70
2023-03-03T05:00:23.215Z,37.70
2023-03-03T05:01:21.809Z,38.5
2023-03-03T05:02:21.913Z,39.59
2023-03-03T05:03:20.915Z,38.79
2023-03-03T05:04:22.180Z,40.70
2023-03-03T05:05:22.063Z,42.29
2023-03-03T05:06:21.857Z,39.70
2023-03-03T05:07:21.642Z,41.20
2023-03-03T05:08:21.432Z,41.09
2023-03-03T05:09:21.790Z,43.79
2023-03-03T05:10:22.489Z,42.20
2023-03-03T05:11:21.762Z,39.40
2023-03-03T05:12:21.665Z,40
2023-03-03T05:13:21.372Z,38.90
2023-03-03T05:14:21.737Z,39.29
2023-03-03T05:15:22.064Z,38.5
2023-03-03T05:16:21.675Z,41.59
2023-03-03T05:17:22.115Z,39.90
2023-03-03T05:18:21.676Z,40.20
2023-03-03T05:19:21.669Z,41.40
2023-03-03T05:20:21.810Z,40.5
2023-03-03T05:21:21.379Z,40.79
2023-03-03T05:22:21.391Z,41.20
2023-03-03T05:23:21.703Z,40.29
2023-03-03T05:24:21.955Z,40
2023-03-03T05:25:22.228Z,41.09
2023-03-03T05:26:21.615Z,40.79
2023-03-03T05:27:21.705Z,41.40
2023-03-03T05:28:22.192Z,40.40
2023-03-03T05:29:22.214Z,39.09
2023-03-03T05:30:22.505Z,41.59
2023-03-03T05:31:22.134Z,41.09
2023-03-03T05:32:22.165Z,42.20
2023-03-03T05:33:21.570Z,41
2023-03-03T05:34:22.330Z,42.20
2023-03-03T05:35:22.129Z,42.09
2023-03-03T05:36:22.181Z,41.09
2023-03-03T05:37:21.720Z,40.79
2023-03-03T05:38:21.939Z,41.59
2023-03-03T05:39:21.802Z,42.40
2023-03-03T05:40:21.943Z,40.29
2023-03-03T05:41:21.398Z,41.70
2023-03-03T05:42:22.219Z,43
2023-03-03T05:43:21.830Z,41.29
2023-03-03T05:44:21.207Z,39.90
2023-03-03T05:45:21.702Z,42.09
2023-03-03T05:46:22.120Z,42.20
2023-03-03T05:47:21.515Z,39.90
2023-03-03T05:48:21.521Z,41.40
2023-03-03T05:49:21.954Z,39.90
2023-03-03T05:50:21.880Z,40.20
2023-03-03T05:51:22.013Z,40.90
2023-03-03T05:52:21.843Z,39.90
2023-03-03T05:53:21.336Z,40
2023-03-03T05:54:21.408Z,40.09
2023-03-03T05:55:21.870Z,41.29
2023-03-03T05:56:21.661Z,41.70
2023-03-03T05:57:21.697Z,41.29
2023-03-03T05:58:21.947Z,40.5
2023-03-03T05:59:21.589Z,41.40
2023-03-03T06:00:22.791Z,39.5
2023-03-03T06:01:22.147Z,40.79
2023-03-03T06:02:22.194Z,41.59
2023-03-03T06:03:22.133Z,41.29
2023-03-03T06:04:22.203Z,42.90
2023-03-03T06:05:22.394Z,42.29
2023-03-03T06:06:21.939Z,40.20
2023-03-03T06:07:22.074Z,40
2023-03-03T06:08:21.263Z,41.20
2023-03-03T06:09:21.785Z,40.59
2023-03-03T06:10:21.627Z,41
2023-03-03T06:11:21.972Z,40.79
2023-03-03T06:12:22.178Z,40.29
2023-03-03T06:13:22.284Z,40.59
2023-03-03T06:14:22.514Z,39.09
2023-03-03T06:15:21.648Z,39.40
2023-03-03T06:16:22.190Z,40.70
2023-03-03T06:17:21.935Z,40.20
2023-03-03T06:18:21.839Z,39.20
2023-03-03T06:19:21.431Z,39.5
2023-03-03T06:20:22.591Z,39.79
2023-03-03T06:21:22.673Z,41.5
2023-03-03T06:22:22.071Z,41.29
2023-03-03T06:23:21.992Z,41
2023-03-03T06:24:21.948Z,41.90
2023-03-03T06:25:21.448Z,41.59
2023-03-03T06:26:22.029Z,41.90
2023-03-03T06:27:21.710Z,42.70
2023-03-03T06:28:21.753Z,41.90
2023-03-03T06:29:21.667Z,41.40
2023-03-03T06:30:22.033Z,39.09
2023-03-03T06:31:21.838Z,38.79
2023-03-03T06:32:21.761Z,36.79
2023-03-03T06:33:21.716Z,36.40
2023-03-03T06:34:21.857Z,36.79
2023-03-03T06:35:21.509Z,36.09
2023-03-03T06:36:21.864Z,38.40
2023-03-03T06:37:21.631Z,36
2023-03-03T06:38:21.363Z,35.40
2023-03-03T06:39:21.880Z,34.59
2023-03-03T06:40:22.213Z,35.20
2023-03-03T06:41:21.526Z,36.20
2023-03-03T06:42:22.048Z,37.29
2023-03-03T06:43:21.658Z,39
2023-03-03T06:44:21.770Z,36.90
2023-03-03T06:45:22.504Z,36.70
2023-03-03T06:46:21.980Z,37.79
2023-03-03T06:47:21.298Z,36.29
2023-03-03T06:48:21.733Z,36
2023-03-03T06:49:21.716Z,35.90
2023-03-03T06:50:22.015Z,37.20
2023-03-03T06:51:22.497Z,37.5
2023-03-03T06:52:21.449Z,37.20
2023-03-03T06:53:21.976Z,39.70
2023-03-03T06:54:22.747Z,38.90
2023-03-03T06:55:22.365Z,38.29
2023-03-03T06:56:21.916Z,39.59
2023-03-03T06:57:21.733Z,38.79
2023-03-03T06:58:21.991Z,42
2023-03-03T06:59:22.052Z,39.5
2023-03-03T07:00:24.003Z,43.59
2023-03-03T07:01:23.132Z,40.59
2023-03-03T07:02:22.185Z,39.90
2023-03-03T07:03:29.499Z,41.5
2023-03-03T07:04:22.395Z,41.20
2023-03-03T07:05:21.817Z,41.90
2023-03-03T07:06:22.417Z,41.59
2023-03-03T07:07:22.081Z,41.29
2023-03-03T07:08:22.406Z,43.40
2023-03-03T07:09:21.987Z,42.40
2023-03-03T07:10:22.158Z,42.59
2023-03-03T07:11:21.437Z,42.70
2023-03-03T07:12:21.738Z,41.40
2023-03-03T07:13:21.402Z,41.20
2023-03-03T07:14:21.957Z,40.90
2023-03-03T07:15:22.300Z,39.90
2023-03-03T07:16:22.108Z,40.79
2023-03-03T07:17:22.099Z,39.40
2023-03-03T07:18:21.062Z,39.09
2023-03-03T07:19:22.058Z,38.29
2023-03-03T07:20:21.445Z,38.40
2023-03-03T07:21:21.891Z,35.59
2023-03-03T07:22:21.984Z,38.40
2023-03-03T07:23:21.559Z,37.09
2023-03-03T07:24:21.702Z,37.29
2023-03-03T07:25:22.454Z,36.09
2023-03-03T07:26:21.757Z,35.59
2023-03-03T07:27:21.431Z,38.09
2023-03-03T07:28:21.762Z,36.29
2023-03-03T07:29:22.259Z,36.90
2023-03-03T07:30:21.498Z,35.59
2023-03-03T07:31:21.225Z,38
2023-03-03T07:32:22.116Z,35.09
2023-03-03T07:33:21.632Z,34.09
2023-03-03T07:34:21.269Z,35.5
2023-03-03T07:35:22.178Z,35.59
2023-03-03T07:36:21.582Z,36.29
2023-03-03T07:37:21.322Z,36.5
2023-03-03T07:38:21.468Z,37.20
2023-03-03T07:39:22.064Z,37.09
2023-03-03T07:40:21.949Z,36.70
2023-03-03T07:41:21.555Z,37.40
2023-03-03T07:42:21.918Z,36
2023-03-03T07:43:22.105Z,37.5
2023-03-03T07:44:21.916Z,37.59
2023-03-03T07:45:21.983Z,35.90
2023-03-03T07:46:22.562Z,36.79
2023-03-03T07:47:21.529Z,36.40
2023-03-03T07:48:21.795Z,37.20
2023-03-03T07:49:21.541Z,36.40
2023-03-03T07:50:22.516Z,36.09
2023-03-03T07:51:21.501Z,37.09
2023-03-03T07:52:22.089Z,35.79
2023-03-03T07:54:21.385Z,36.20
2023-03-03T07:55:22.113Z,35.79
2023-03-03T07:56:21.986Z,34.20
2023-03-03T07:57:21.778Z,35.20
2023-03-03T07:58:21.446Z,34
2023-03-03T07:59:22.090Z,35.79
2023-03-03T08:00:22.582Z,35.5
2023-03-03T08:01:22.233Z,34.79
2023-03-03T08:02:22.358Z,36.59
2023-03-03T08:03:22.188Z,35.09
2023-03-03T08:04:22.157Z,36.90
2023-03-03T08:05:22.396Z,36
2023-03-03T08:06:21.435Z,36.09
2023-03-03T08:07:22.387Z,35.90
2023-03-03T08:08:22.334Z,35.79
2023-03-03T08:09:21.399Z,37.09
2023-03-03T08:10:22.351Z,37.70
2023-03-03T08:11:22.322Z,37.29
2023-03-03T08:12:22.321Z,36.5
2023-03-03T08:13:21.906Z,37.59
2023-03-03T08:14:21.409Z,37.29
2023-03-03T08:15:22.045Z,35.70
2023-03-03T08:16:21.507Z,38.29
2023-03-03T08:17:22.254Z,36.09
2023-03-03T08:18:21.883Z,37.59
2023-03-03T08:19:21.278Z,35.40
2023-03-03T08:20:21.891Z,36.20
2023-03-03T08:22:21.824Z,36.59
2023-03-03T08:23:22.380Z,34.40
2023-03-03T08:24:22.400Z,33.59
2023-03-03T08:25:22.241Z,36.40
2023-03-03T08:26:21.587Z,35.29
2023-03-03T08:27:22.309Z,33.79
2023-03-03T08:28:22.046Z,34.20
2023-03-03T08:29:22.088Z,35.29
2023-03-03T08:30:21.892Z,33.20
2023-03-03T08:31:38.469Z,35.29
2023-03-03T08:32:21.820Z,35.09
2023-03-03T08:33:21.900Z,34.59
2023-03-03T08:34:21.307Z,34.70
2023-03-03T08:35:21.469Z,32.40
2023-03-03T08:36:21.709Z,33
2023-03-03T08:37:22.025Z,33.40
2023-03-03T08:38:21.622Z,33.79
2023-03-03T08:39:22.171Z,34.5
2023-03-03T08:40:21.710Z,32.5
2023-03-03T08:41:22.355Z,33
2023-03-03T08:42:21.816Z,32.59
2023-03-03T08:43:21.876Z,31.39
2023-03-03T08:44:21.742Z,33.40
2023-03-03T08:45:21.814Z,31.79
2023-03-03T08:46:21.349Z,30.60
2023-03-03T08:47:21.772Z,32.20
2023-03-03T08:48:21.917Z,30.89
2023-03-03T08:49:21.312Z,32.59
2023-03-03T08:50:21.946Z,32.5
2023-03-03T08:51:22.055Z,32.79
2023-03-03T08:52:21.170Z,32.90
2023-03-03T08:53:21.652Z,34.29
2023-03-03T08:54:21.838Z,32.79
2023-03-03T08:55:21.961Z,33.20
2023-03-03T08:56:21.297Z,35.5
2023-03-03T08:57:21.931Z,35.79
2023-03-03T08:58:23.823Z,34
2023-03-03T08:59:21.882Z,35.90
2023-03-03T09:00:22.427Z,34.90
2023-03-03T09:01:22.827Z,37.5
2023-03-03T09:02:21.631Z,35.29
2023-03-03T09:03:21.779Z,35.5
2023-03-03T09:04:21.699Z,34.40
2023-03-03T09:05:21.550Z,34.79
2023-03-03T09:06:22.488Z,32.59
2023-03-03T09:07:22.226Z,33.29
2023-03-03T09:08:21.809Z,36
2023-03-03T09:09:21.968Z,35.5
2023-03-03T09:10:21.988Z,35.79
2023-03-03T09:11:22.150Z,35.90
2023-03-03T09:12:22.141Z,33.09
2023-03-03T09:13:22.288Z,33.79
2023-03-03T09:14:22.129Z,35.20
2023-03-03T09:15:21.984Z,32.79
2023-03-03T09:16:22.017Z,33
2023-03-03T09:17:22.143Z,33.90
2023-03-03T09:18:26.831Z,36.20
2023-03-03T09:19:21.162Z,35.59
2023-03-03T09:20:21.705Z,39.5
2023-03-03T09:21:21.517Z,39.40
2023-03-03T09:22:21.796Z,40.59
2023-03-03T09:23:21.670Z,41.29
2023-03-03T09:24:22.175Z,42.09
2023-03-03T09:25:22.216Z,40.09
2023-03-03T09:26:21.999Z,39.79
2023-03-03T09:27:22.418Z,37.70
2023-03-03T09:28:21.389Z,37.20
2023-03-03T09:29:22.032Z,36.59
2023-03-03T09:30:22.098Z,36.09
2023-03-03T09:31:22.303Z,36
2023-03-03T09:32:22.242Z,37.29
2023-03-03T09:33:22.091Z,38.40
2023-03-03T09:34:21.747Z,38.79
2023-03-03T09:35:22.520Z,39.5
2023-03-03T09:36:30.228Z,40.20
2023-03-03T09:37:21.710Z,41.79
2023-03-03T09:38:21.936Z,44
2023-03-03T09:39:22.135Z,43.59
2023-03-03T09:40:22.066Z,43.5
2023-03-03T09:41:22.018Z,45.09
2023-03-03T09:42:22.105Z,45.90
2023-03-03T09:43:21.974Z,43.90
2023-03-03T09:44:21.387Z,44
2023-03-03T09:45:22.709Z,44.09
2023-03-03T09:46:22.226Z,44.59
2023-03-03T09:47:22.376Z,45.20
2023-03-03T09:48:21.664Z,47.29
2023-03-03T09:49:23.413Z,44.5
2023-03-03T09:50:21.876Z,45
2023-03-03T09:51:21.500Z,43.70
2023-03-03T09:52:21.845Z,44.59
2023-03-03T09:54:22.208Z,44.5
2023-03-03T09:55:25.168Z,43
2023-03-03T09:56:22.181Z,42.29
2023-03-03T09:57:21.384Z,39.40
2023-03-03T09:58:21.532Z,39.59
2023-03-03T09:59:22.146Z,40.20
2023-03-03T10:00:22.430Z,39.5
2023-03-03T10:01:21.878Z,38.90
2023-03-03T10:02:22.171Z,40.20
2023-03-03T10:03:22.273Z,39.20
2023-03-03T10:04:21.861Z,40.79
2023-03-03T10:05:21.574Z,39.79
2023-03-03T10:06:22.215Z,40.09
2023-03-03T10:07:22.046Z,40.90
2023-03-03T10:08:21.828Z,42.09
2023-03-03T10:09:22.209Z,40.79
2023-03-03T10:10:22.511Z,41.79
2023-03-03T10:11:21.880Z,41.5
2023-03-03T10:12:22.105Z,42.59
2023-03-03T10:13:21.730Z,41.79
2023-03-03T10:14:22.188Z,41.40
2023-03-03T10:15:22.121Z,39
2023-03-03T10:16:22.105Z,40.09
2023-03-03T10:17:21.666Z,42
2023-03-03T10:18:22.271Z,41.29
2023-03-03T10:19:22.246Z,42.09
2023-03-03T10:20:22.878Z,41.09
2023-03-03T10:21:22.163Z,41.70
2023-03-03T10:22:22.179Z,42.09
2023-03-03T10:23:21.748Z,41.29
2023-03-03T10:24:22.172Z,43.59
2023-03-03T10:25:21.692Z,42.40
2023-03-03T10:26:29.005Z,43.20
2023-03-03T10:27:22.234Z,44
2023-03-03T10:28:21.628Z,42.40
2023-03-03T10:29:22.556Z,39.09
2023-03-03T10:30:38.426Z,39.29
2023-03-03T10:31:28.381Z,39.59
2023-03-03T10:32:22.828Z,38.79
2023-03-03T10:33:22.593Z,37.90
2023-03-03T10:34:21.971Z,40.20
2023-03-03T10:35:22.067Z,41.20
2023-03-03T10:36:21.743Z,40.20
2023-03-03T10:37:21.793Z,41.09
2023-03-03T10:38:21.863Z,42.79
2023-03-03T10:39:22.056Z,41.59
2023-03-03T10:40:22.310Z,43.20
2023-03-03T10:41:21.962Z,41.20
2023-03-03T10:42:21.674Z,41.40
2023-03-03T10:43:31.045Z,43.29
2023-03-03T10:44:21.905Z,42.5
2023-03-03T10:45:22.268Z,40.29
2023-03-03T10:46:21.496Z,41
2023-03-03T10:47:22.396Z,40.70
2023-03-03T10:48:22.144Z,40.09
2023-03-03T10:49:22.213Z,40
2023-03-03T10:50:22.519Z,40.79
2023-03-03T10:51:22.099Z,39.90
2023-03-03T10:52:22.082Z,41.20
2023-03-03T10:53:21.960Z,44
2023-03-03T10:54:21.811Z,43.90
2023-03-03T10:55:21.861Z,43.5
2023-03-03T10:56:21.662Z,44.79
2023-03-03T10:57:21.844Z,44.70
2023-03-03T10:59:22.502Z,44
2023-03-03T11:00:22.930Z,45.40
2023-03-03T11:01:24.489Z,43.59
2023-03-03T11:02:21.855Z,44.79
2023-03-03T11:03:21.275Z,43.79
2023-03-03T11:04:22.489Z,44
2023-03-03T11:05:22.949Z,42.90
2023-03-03T11:06:23.099Z,42.20
2023-03-03T11:07:22.307Z,42.29
2023-03-03T11:08:22.752Z,44.20
2023-03-03T11:09:22.453Z,41.70
2023-03-03T11:10:22.092Z,40.79
2023-03-03T11:11:21.601Z,42.20
2023-03-03T11:12:22.775Z,42.70
2023-03-03T11:13:22.067Z,41.70
2023-03-03T11:14:21.900Z,43.59
2023-03-03T11:15:22.211Z,45.90
2023-03-03T11:16:21.869Z,48.09
2023-03-03T11:17:22.331Z,45.79
2023-03-03T11:18:25.774Z,45.5
2023-03-03T11:19:22.223Z,42.40
2023-03-03T11:20:22.449Z,43.79
2023-03-03T11:21:22.249Z,42.70
2023-03-03T11:22:21.748Z,43.29
2023-03-03T11:23:22.059Z,44.29
2023-03-03T11:24:24.113Z,46.29
2023-03-03T11:25:22.708Z,43.29
2023-03-03T11:26:21.728Z,44.79
2023-03-03T11:27:23.174Z,43.40
2023-03-03T11:28:22.470Z,41.70
2023-03-03T11:29:21.844Z,44.40
2023-03-03T11:30:22.021Z,43.09
2023-03-03T11:31:21.569Z,41.59
2023-03-03T11:32:22.189Z,42.59
2023-03-03T11:33:21.618Z,41.5
2023-03-03T11:34:21.425Z,38.90
2023-03-03T11:35:21.915Z,40.29
2023-03-03T11:36:21.375Z,40.20
2023-03-03T11:37:21.366Z,38.59
2023-03-03T11:38:21.722Z,39.5
2023-03-03T11:39:22.209Z,38.5
2023-03-03T11:40:21.735Z,37.20
2023-03-03T11:41:21.832Z,37.40
2023-03-03T11:42:23.625Z,35.59
2023-03-03T11:43:35.603Z,36.40
2023-03-03T11:44:21.751Z,34.59
2023-03-03T11:45:22.804Z,34.70
2023-03-03T11:46:21.691Z,33.90
2023-03-03T11:47:21.823Z,32.79
2023-03-03T11:48:21.476Z,30.10
2023-03-03T11:49:21.495Z,31.79
2023-03-03T11:50:22.192Z,29.70
2023-03-03T11:51:20.915Z,29.20
2023-03-03T11:52:21.643Z,29.39
2023-03-03T11:53:21.485Z,28.70
2023-03-03T11:54:21.495Z,29.70
2023-03-03T11:55:30.131Z,30.29
2023-03-03T11:56:21.390Z,29.39
2023-03-03T11:57:29.917Z,29
2023-03-03T11:58:21.866Z,28.39
2023-03-03T11:59:22.084Z,27.79
2023-03-03T12:00:23.043Z,28.10
2023-03-03T12:01:35.600Z,29.20
2023-03-03T12:02:21.876Z,29.10
2023-03-03T12:03:21.411Z,30.20
2023-03-03T12:04:22.147Z,31.10
2023-03-03T12:05:21.871Z,29.89
2023-03-03T12:06:21.600Z,29.39
2023-03-03T12:07:22.227Z,29.89
2023-03-03T12:08:21.443Z,31.29
2023-03-03T12:09:21.668Z,29.79
2023-03-03T12:10:22.757Z,30.20
2023-03-03T12:11:35.726Z,30.70
2023-03-03T12:12:22.208Z,31.60
2023-03-03T12:13:21.881Z,31.10
2023-03-03T12:14:21.844Z,31.79
2023-03-03T12:15:36.150Z,31.20
2023-03-03T12:16:22.405Z,31.10
2023-03-03T12:17:21.887Z,31
2023-03-03T12:18:21.432Z,32
2023-03-03T12:19:22.054Z,32.29
2023-03-03T12:21:22.316Z,31.60
2023-03-03T12:22:21.292Z,33.59
2023-03-03T12:23:22.087Z,33.09
2023-03-03T12:24:22.222Z,33.59
2023-03-03T12:25:21.645Z,34.29
2023-03-03T12:26:21.665Z,34.40
2023-03-03T12:27:21.870Z,34.29
2023-03-03T12:28:21.150Z,35.70
2023-03-03T12:29:21.873Z,36.59
2023-03-03T12:30:22.334Z,34.90
2023-03-03T12:31:44.187Z,35.20
2023-03-03T12:32:22.278Z,36.5
2023-03-03T12:33:22.051Z,36.29
2023-03-03T12:34:21.801Z,36
2023-03-03T12:35:22.642Z,35.29
2023-03-03T12:36:21.965Z,35.09
2023-03-03T12:38:23.147Z,35.20
2023-03-03T12:39:34.158Z,33.79
2023-03-03T12:40:22.133Z,38.40
2023-03-03T12:42:23.025Z,37.59
2023-03-03T12:43:21.859Z,36.20
2023-03-03T12:44:21.634Z,37.79
2023-03-03T12:45:22.164Z,36.70
2023-03-03T12:46:28.502Z,38.70
2023-03-03T12:47:23.344Z,38.5
2023-03-03T12:48:21.428Z,39.40
2023-03-03T12:49:21.503Z,38.90
2023-03-03T12:50:21.879Z,40
2023-03-03T12:51:21.771Z,39.09
2023-03-03T12:52:21.748Z,41.20
2023-03-03T12:53:21.488Z,40.5
2023-03-03T12:54:22.021Z,40.09
2023-03-03T12:55:21.684Z,37.70
2023-03-03T12:57:21.716Z,36.90
2023-03-03T12:58:22.134Z,35.79
2023-03-03T12:59:22.023Z,37.40
2023-03-03T13:00:23.479Z,36.20
2023-03-03T13:01:22.521Z,35.5
2023-03-03T13:02:21.718Z,37.09
2023-03-03T13:03:22.969Z,36.70
2023-03-03T13:04:21.872Z,35.79
2023-03-03T13:06:21.485Z,35.70
2023-03-03T13:07:21.983Z,35.79
2023-03-03T13:08:22.186Z,33.90
2023-03-03T13:09:22.122Z,34.70
2023-03-03T13:10:21.492Z,35.79
2023-03-03T13:11:22.680Z,35.59
2023-03-03T13:12:22.079Z,34.70
2023-03-03T13:14:23.052Z,36.5
2023-03-03T13:16:31.971Z,37.79
2023-03-03T13:17:22.455Z,36.40
2023-03-03T13:18:21.921Z,35.90
2023-03-03T13:19:21.534Z,39
2023-03-03T13:20:22.522Z,36.5
2023-03-03T13:21:22.050Z,39
2023-03-03T13:22:21.798Z,38.20
2023-03-03T13:23:21.605Z,39.40